Time;durP1;ratioP1;P1;durP2;ratioP2;P2;SDS_P1;SDS_P2;PMS_P1;PMS_P2;Temp;Humidity;BMP_temperature;BMP_pressure;BME280_temperature;BME280_humidity;BME280_pressure;Samples;Min_cycle;Max_cycle;Signal;HPM_P1;HPM_P2
2023/11/24 00:02:02;;;;;;;7.00;0.28;;;8.50;99.90;;;;;;5016446;28;20078;-75
2023/11/24 00:04:28;;;;;;;5.00;0.38;;;8.50;99.90;;;;;;5016738;28;20022;-75
2023/11/24 00:06:55;;;;;;;5.43;0.00;;;8.40;99.90;;;;;;5016421;28;20497;-75
2023/11/24 00:09:21;;;;;;;3.63;0.28;;;8.50;99.90;;;;;;5015025;28;20168;-75
2023/11/24 00:11:47;;;;;;;8.60;0.65;;;8.50;99.90;;;;;;5015084;28;20553;-75
2023/11/24 00:14:13;;;;;;;4.82;0.70;;;8.60;99.90;;;;;;5016204;28;20113;-75
2023/11/24 00:16:39;;;;;;;7.10;0.00;;;8.60;99.90;;;;;;5016613;28;20390;-75
2023/11/24 00:19:06;;;;;;;4.57;0.40;;;8.60;99.90;;;;;;5016726;28;20070;-75
2023/11/24 00:21:32;;;;;;;2.80;0.20;;;8.60;99.90;;;;;;5015378;28;20386;-75
2023/11/24 00:23:58;;;;;;;7.45;0.30;;;8.60;99.90;;;;;;5015252;28;20030;-75
2023/11/24 00:26:26;;;;;;;5.90;0.10;;;8.60;99.90;;;;;;5016329;28;20018;-75
2023/11/24 00:28:54;;;;;;;9.10;0.88;;;8.70;99.90;;;;;;5014880;28;20025;-75
2023/11/24 00:31:20;;;;;;;4.37;0.50;;;8.70;99.90;;;;;;5016877;28;20053;-75
2023/11/24 00:33:47;;;;;;;4.20;0.10;;;8.70;99.90;;;;;;5014685;28;20323;-75
2023/11/24 00:36:12;;;;;;;3.15;0.08;;;8.70;99.90;;;;;;5014772;28;20044;-75
2023/11/24 00:38:38;;;;;;;4.60;0.00;;;8.60;99.90;;;;;;5014141;28;20029;-75
2023/11/24 00:41:06;;;;;;;2.40;0.10;;;8.60;99.90;;;;;;5015884;28;20102;-75
2023/11/24 00:43:31;;;;;;;4.00;0.35;;;8.60;99.90;;;;;;5014553;28;20018;-75
2023/11/24 00:45:57;;;;;;;7.28;0.55;;;8.50;99.90;;;;;;5014553;28;20018;-75
2023/11/24 00:48:24;;;;;;;6.20;0.13;;;8.40;99.90;;;;;;5016161;28;20030;-75
2023/11/24 00:50:50;;;;;;;6.22;0.00;;;8.40;99.90;;;;;;5014758;28;20025;-75
2023/11/24 00:53:16;;;;;;;3.08;0.00;;;8.40;99.90;;;;;;5016003;28;20018;-75
2023/11/24 00:55:41;;;;;;;1.77;0.00;;;8.30;99.90;;;;;;5014305;28;20026;-75
2023/11/24 00:58:07;;;;;;;9.93;0.60;;;8.30;99.90;;;;;;5015543;28;20096;-75
2023/11/24 01:00:38;;;;;;;4.75;0.22;;;8.20;99.90;;;;;;5015561;28;20052;-75
2023/11/24 01:03:05;;;;;;;5.15;0.32;;;8.20;99.90;;;;;;5015829;28;20072;-75
2023/11/24 01:05:30;;;;;;;5.68;0.57;;;8.10;99.90;;;;;;5014456;28;20110;-75
2023/11/24 01:07:58;;;;;;;9.07;0.22;;;8.10;99.90;;;;;;5015396;28;20045;-75
2023/11/24 01:10:24;;;;;;;4.15;0.38;;;8.00;99.90;;;;;;5015507;28;20025;-75
2023/11/24 01:12:49;;;;;;;9.52;0.63;;;8.00;99.90;;;;;;5014137;28;20448;-75
2023/11/24 01:15:15;;;;;;;4.40;0.68;;;8.00;99.90;;;;;;5014743;28;20533;-75
2023/11/24 01:17:40;;;;;;;7.53;0.50;;;8.00;99.90;;;;;;5015299;28;20489;-75
2023/11/24 01:20:09;;;;;;;7.28;0.28;;;8.00;99.90;;;;;;5015284;28;20075;-75
2023/11/24 01:22:35;;;;;;;;;;;8.00;99.90;;;;;;5015613;28;20490;-75
2023/11/24 01:25:01;;;;;;;5.28;0.20;;;8.00;99.90;;;;;;5014057;28;19916;-75
2023/11/24 01:27:27;;;;;;;10.27;0.25;;;7.90;99.90;;;;;;5013922;28;20393;-75
2023/11/24 01:29:52;;;;;;;6.07;0.32;;;7.90;99.90;;;;;;5015017;28;20022;-75
2023/11/24 01:32:18;;;;;;;8.55;0.28;;;7.90;99.90;;;;;;5015485;28;20029;-75
2023/11/24 01:34:44;;;;;;;6.38;0.52;;;7.90;99.90;;;;;;5013592;28;20068;-75
2023/11/24 01:37:09;;;;;;;3.65;0.00;;;7.90;99.90;;;;;;5014801;28;20072;-75
2023/11/24 01:39:36;;;;;;;8.30;0.25;;;8.00;99.90;;;;;;5013509;28;20026;-75
2023/11/24 01:42:04;;;;;;;10.70;0.47;;;8.10;99.90;;;;;;5013506;28;20123;-75
2023/11/24 01:44:30;;;;;;;5.25;0.35;;;8.10;99.90;;;;;;5014734;28;20030;-75
2023/11/24 01:46:56;;;;;;;11.05;0.80;;;8.10;99.90;;;;;;5013658;28;20034;-74
2023/11/24 01:49:23;;;;;;;9.02;0.10;;;8.20;99.90;;;;;;5014303;28;20113;-74
2023/11/24 01:51:49;;;;;;;12.95;0.65;;;8.20;99.90;;;;;;5013156;28;20057;-74
2023/11/24 01:54:17;;;;;;;7.43;0.10;;;8.30;99.90;;;;;;5013303;28;20026;-74
2023/11/24 01:56:43;;;;;;;1.70;0.08;;;9.10;99.90;;;;;;5013473;28;20022;-74
2023/11/24 01:59:09;;;;;;;7.60;0.13;;;8.30;99.90;;;;;;5014475;28;20386;-74
2023/11/24 02:01:35;;;;;;;4.38;0.17;;;8.30;99.90;;;;;;5014468;28;20500;-74
2023/11/24 02:04:02;;;;;;;1.95;0.10;;;8.30;99.90;;;;;;5015130;28;20022;-74
2023/11/24 02:06:28;;;;;;;4.80;0.43;;;8.30;99.90;;;;;;5014449;28;20496;-74
2023/11/24 02:08:54;;;;;;;7.40;0.38;;;8.20;99.90;;;;;;5014486;28;20140;-74
2023/11/24 02:11:19;;;;;;;6.50;0.38;;;8.30;99.90;;;;;;5013252;28;20485;-74
2023/11/24 02:13:49;;;;;;;1.10;0.00;;;8.30;99.90;;;;;;5014540;28;20101;-74
2023/11/24 02:16:15;;;;;;;3.50;0.22;;;8.20;99.90;;;;;;5014510;28;20474;-74
2023/11/24 02:18:41;;;;;;;5.97;0.00;;;8.30;99.90;;;;;;5015106;28;20022;-74
2023/11/24 02:21:07;;;;;;;0.55;0.00;;;8.20;99.90;;;;;;5014735;28;20029;-74
2023/11/24 02:23:35;;;;;;;3.03;0.00;;;8.20;99.90;;;;;;5014415;28;20381;-74
2023/11/24 02:26:01;;;;;;;4.47;0.30;;;8.20;99.90;;;;;;5012733;28;20069;-74
2023/11/24 02:28:27;;;;;;;6.00;0.17;;;8.00;99.90;;;;;;5014766;28;20022;-74
2023/11/24 02:30:53;;;;;;;7.10;0.47;;;8.00;99.90;;;;;;5015505;28;20030;-74
2023/11/24 02:33:22;;;;;;;5.35;0.08;;;8.00;99.90;;;;;;5014381;28;20153;-74
2023/11/24 02:35:48;;;;;;;5.72;0.55;;;7.90;99.90;;;;;;5014503;28;20033;-74
2023/11/24 02:38:14;;;;;;;2.92;0.22;;;7.80;99.90;;;;;;5014178;28;20030;-74
2023/11/24 02:40:42;;;;;;;2.55;0.00;;;7.70;99.90;;;;;;5014532;28;20026;-74
2023/11/24 02:43:09;;;;;;;;;;;7.80;99.90;;;;;;5014671;28;20385;-74
2023/11/24 02:45:35;;;;;;;5.00;0.30;;;8.20;99.90;;;;;;5017392;28;19912;-74
2023/11/24 02:48:00;;;;;;;8.45;0.60;;;7.50;99.90;;;;;;5018820;28;20109;-74
2023/11/24 02:50:26;;;;;;;6.25;0.47;;;7.50;99.90;;;;;;5017927;28;20513;-74
2023/11/24 02:52:52;;;;;;;7.13;0.52;;;7.50;99.90;;;;;;5018136;28;20051;-74
2023/11/24 02:55:18;;;;;;;2.78;0.00;;;7.40;99.90;;;;;;5016556;28;20049;-74
2023/11/24 02:57:44;;;;;;;8.43;0.00;;;7.30;99.90;;;;;;5017916;28;20025;-74
2023/11/24 03:00:12;;;;;;;5.03;0.20;;;7.20;99.90;;;;;;5017879;28;20030;-74
2023/11/24 03:02:41;;;;;;;2.15;0.00;;;7.20;99.90;;;;;;5016474;28;20371;-74
2023/11/24 03:05:07;;;;;;;;;;;7.10;99.90;;;;;;5016820;28;20022;-74
2023/11/24 03:07:35;;;;;;;7.47;0.80;;;7.10;99.90;;;;;;5018109;28;19906;-74
2023/11/24 03:10:01;;;;;;;4.22;0.20;;;7.10;99.90;;;;;;5017957;28;20036;-74
2023/11/24 03:12:27;;;;;;;4.22;0.00;;;7.10;99.90;;;;;;5017042;28;20026;-74
2023/11/24 03:14:53;;;;;;;5.97;0.35;;;7.20;99.90;;;;;;5017623;28;20053;-74
2023/11/24 03:17:20;;;;;;;7.18;0.13;;;7.20;99.90;;;;;;5016523;28;20022;-74
2023/11/24 03:19:46;;;;;;;4.25;0.10;;;7.40;99.90;;;;;;5016190;28;20022;-74
2023/11/24 03:22:12;;;;;;;5.95;0.32;;;7.40;99.90;;;;;;5017537;28;20109;-74
2023/11/24 03:24:38;;;;;;;5.68;0.70;;;7.50;99.90;;;;;;5016163;28;20068;-74
2023/11/24 03:27:03;;;;;;;5.78;0.35;;;7.50;99.90;;;;;;5016241;28;20018;-74
2023/11/24 03:29:29;;;;;;;6.82;1.35;;;7.50;99.90;;;;;;5017180;28;20441;-74
2023/11/24 03:31:54;;;;;;;6.45;0.45;;;7.40;99.90;;;;;;5017236;28;20045;-74
2023/11/24 03:34:20;;;;;;;4.07;0.20;;;7.30;99.90;;;;;;5017551;28;20037;-74
2023/11/24 03:36:46;;;;;;;7.50;1.23;;;7.20;99.90;;;;;;5015949;28;20022;-74
2023/11/24 03:39:13;;;;;;;4.05;0.10;;;7.10;99.90;;;;;;5015444;28;20056;-74
2023/11/24 03:41:41;;;;;;;5.10;0.52;;;7.10;99.90;;;;;;5015730;28;20018;-74
2023/11/24 03:44:06;;;;;;;3.83;0.43;;;7.00;99.90;;;;;;5017682;28;20402;-74
2023/11/24 03:46:32;;;;;;;4.53;0.30;;;7.00;99.90;;;;;;5017688;28;20017;-74
2023/11/24 03:48:58;;;;;;;2.63;0.93;;;7.00;99.90;;;;;;5017228;28;20030;-75
2023/11/24 03:51:23;;;;;;;4.20;0.38;;;6.90;99.90;;;;;;5016816;28;20018;-74
2023/11/24 03:53:49;;;;;;;2.55;0.00;;;7.00;99.90;;;;;;5015452;28;20393;-74
2023/11/24 03:56:15;;;;;;;6.85;0.15;;;7.00;99.90;;;;;;5015481;28;20506;-74
2023/11/24 03:58:41;;;;;;;6.22;0.30;;;7.10;99.90;;;;;;5015492;28;20113;-74
2023/11/24 04:01:15;;;;;;;3.08;0.10;;;7.10;99.90;;;;;;5016681;28;20018;-74
2023/11/24 04:03:46;;;;;;;5.80;0.35;;;7.00;99.90;;;;;;5015523;28;20188;-75
2023/11/24 04:06:12;;;;;;;5.00;0.17;;;6.90;99.90;;;;;;5015315;28;20048;-74
2023/11/24 04:08:39;;;;;;;4.80;0.00;;;6.90;99.90;;;;;;5015128;28;20018;-74
2023/11/24 04:11:05;;;;;;;3.95;0.00;;;6.80;99.90;;;;;;5017281;28;20102;-74
2023/11/24 04:13:31;;;;;;;8.60;0.00;;;6.70;99.90;;;;;;5016608;28;20029;-75
2023/11/24 04:15:57;;;;;;;4.90;0.20;;;6.60;99.90;;;;;;5015029;28;20025;-74
2023/11/24 04:18:22;;;;;;;7.50;0.35;;;6.60;99.90;;;;;;5016461;28;20030;-74
2023/11/24 04:20:48;;;;;;;19.05;1.05;;;6.50;99.90;;;;;;5016548;28;20535;-74
2023/11/24 04:23:13;;;;;;;6.20;0.20;;;6.60;99.90;;;;;;5015304;28;20067;-74
2023/11/24 04:25:40;;;;;;;4.43;0.15;;;6.60;99.90;;;;;;5015091;28;20116;-74
2023/11/24 04:28:07;;;;;;;3.65;0.25;;;6.70;99.90;;;;;;5015129;28;20022;-74
2023/11/24 04:30:33;;;;;;;6.05;0.25;;;6.70;99.90;;;;;;5016129;28;20060;-74
2023/11/24 04:32:58;;;;;;;3.25;0.10;;;6.80;99.90;;;;;;5015892;28;20022;-74
2023/11/24 04:35:24;;;;;;;3.25;0.00;;;6.90;99.90;;;;;;5015947;28;20057;-74
2023/11/24 04:37:50;;;;;;;8.80;0.38;;;6.90;99.90;;;;;;5016393;28;20032;-75
2023/11/24 04:40:18;;;;;;;5.10;0.00;;;6.90;99.90;;;;;;5014988;28;20029;-74
2023/11/24 04:42:44;;;;;;;1.13;0.00;;;6.90;99.90;;;;;;5016125;28;20022;-74
2023/11/24 04:45:11;;;;;;;8.73;0.52;;;6.90;99.90;;;;;;5016028;28;20026;-74
2023/11/24 04:47:37;;;;;;;3.60;0.20;;;6.90;99.90;;;;;;5015970;28;20108;-74
2023/11/24 04:50:03;;;;;;;8.23;0.03;;;6.90;99.90;;;;;;5015953;28;20026;-74
2023/11/24 04:52:28;;;;;;;3.88;0.22;;;6.80;99.90;;;;;;5015931;28;20381;-74
2023/11/24 04:54:54;;;;;;;11.13;0.43;;;6.80;99.90;;;;;;5015649;28;20026;-75
2023/11/24 04:57:19;;;;;;;7.05;0.10;;;6.70;99.90;;;;;;5015719;28;20049;-74
2023/11/24 04:59:46;;;;;;;4.82;0.30;;;6.70;99.90;;;;;;5014478;28;20478;-74
2023/11/24 05:02:12;;;;;;;7.53;0.52;;;6.70;99.90;;;;;;5015882;28;20015;-74
2023/11/24 05:04:38;;;;;;;4.80;0.40;;;6.70;99.90;;;;;;5015507;28;20030;-74
2023/11/24 05:07:04;;;;;;;3.88;0.30;;;6.80;99.90;;;;;;5015503;28;20068;-74
2023/11/24 05:09:29;;;;;;;6.40;0.00;;;6.80;99.90;;;;;;5013840;28;20034;-74
2023/11/24 05:11:55;;;;;;;2.75;0.10;;;6.80;99.90;;;;;;5015504;28;20532;-74
2023/11/24 05:14:20;;;;;;;2.65;0.38;;;7.50;99.90;;;;;;5015402;28;20040;-74
2023/11/24 05:16:46;;;;;;;3.95;0.00;;;6.80;99.90;;;;;;5015277;28;20030;-74
2023/11/24 05:19:11;;;;;;;6.90;0.35;;;6.70;99.90;;;;;;5015253;28;20030;-75
2023/11/24 05:21:39;;;;;;;7.53;0.30;;;6.70;99.90;;;;;;5013859;28;20018;-74
2023/11/24 05:24:05;;;;;;;2.95;0.00;;;6.60;99.90;;;;;;5015424;28;20443;-75
2023/11/24 05:26:32;;;;;;;5.38;0.03;;;6.60;99.90;;;;;;5013648;28;20383;-75
2023/11/24 05:28:58;;;;;;;6.00;0.52;;;6.60;99.90;;;;;;5014177;28;20505;-74
2023/11/24 05:31:24;;;;;;;9.15;0.40;;;6.60;99.90;;;;;;5013803;28;20030;-74
2023/11/24 05:33:51;;;;;;;11.82;0.00;;;6.60;99.90;;;;;;5015284;28;20025;-74
2023/11/24 05:36:18;;;;;;;6.97;0.22;;;6.70;99.90;;;;;;5015260;28;20018;-74
2023/11/24 05:38:44;;;;;;;9.30;0.13;;;6.70;99.90;;;;;;5014224;28;20445;-75
2023/11/24 05:41:10;;;;;;;3.83;0.40;;;6.80;99.90;;;;;;5015298;28;20018;-74
2023/11/24 05:43:36;;;;;;;4.60;0.22;;;6.70;99.90;;;;;;5014891;28;20022;-75
2023/11/24 05:46:06;;;;;;;3.22;0.38;;;6.70;99.90;;;;;;5014818;28;20417;-74
2023/11/24 05:48:32;;;;;;;3.30;0.25;;;9.80;99.90;;;;;;5014045;28;20544;-74
2023/11/24 05:50:58;;;;;;;3.88;0.28;;;6.50;99.90;;;;;;5013605;28;20018;-74
2023/11/24 05:53:25;;;;;;;3.80;0.10;;;6.50;99.90;;;;;;5014434;28;20049;-74
2023/11/24 05:55:51;;;;;;;4.80;0.22;;;6.50;99.90;;;;;;5013611;28;20018;-74
2023/11/24 05:58:17;;;;;;;7.25;0.30;;;6.40;99.90;;;;;;5013764;28;20018;-74
2023/11/24 06:00:42;;;;;;;6.13;0.55;;;6.40;99.90;;;;;;5014662;28;20493;-75
2023/11/24 06:03:10;;;;;;;5.68;0.15;;;6.40;99.90;;;;;;5013116;28;20437;-74
2023/11/24 06:05:35;;;;;;;4.10;0.00;;;6.50;99.90;;;;;;5014641;28;20025;-74
2023/11/24 06:08:04;;;;;;;5.00;0.00;;;6.50;99.90;;;;;;5014468;28;20096;-74
2023/11/24 06:10:30;;;;;;;;;;;6.50;99.90;;;;;;5013498;28;20056;-74
2023/11/24 06:12:56;;;;;;;1.30;0.00;;;6.40;99.90;;;;;;5014496;28;19905;-74
2023/11/24 06:15:22;;;;;;;2.95;0.25;;;6.30;99.90;;;;;;5013158;28;20036;-75
2023/11/24 06:17:48;;;;;;;6.43;0.40;;;6.20;99.90;;;;;;5013016;28;20370;-74
2023/11/24 06:20:14;;;;;;;2.00;0.00;;;6.20;99.90;;;;;;5012297;28;20029;-75
2023/11/24 06:22:40;;;;;;;2.88;0.10;;;6.20;99.90;;;;;;5012822;28;20029;-75
2023/11/24 06:25:06;;;;;;;4.75;0.40;;;6.30;99.90;;;;;;5012907;28;20026;-74
2023/11/24 06:27:31;;;;;;;7.00;0.85;;;6.40;99.90;;;;;;5013958;28;20034;-75
2023/11/24 06:29:58;;;;;;;2.60;0.10;;;6.40;99.90;;;;;;5012813;28;20440;-74
2023/11/24 06:32:23;;;;;;;4.38;0.10;;;6.30;99.90;;;;;;5014820;28;20037;-74
2023/11/24 06:34:49;;;;;;;6.25;0.05;;;6.20;99.90;;;;;;5012780;28;20022;-75
2023/11/24 06:37:14;;;;;;;2.88;0.00;;;6.20;99.90;;;;;;5012458;28;20393;-75
2023/11/24 06:39:40;;;;;;;8.23;0.80;;;6.00;99.90;;;;;;5013878;28;20103;-74
2023/11/24 06:42:06;;;;;;;5.93;0.13;;;6.00;99.90;;;;;;5013213;28;20105;-74
2023/11/24 06:44:31;;;;;;;1.05;0.20;;;6.00;99.90;;;;;;5014333;28;20022;-75
2023/11/24 06:46:57;;;;;;;4.03;0.73;;;5.90;99.90;;;;;;5013829;28;20033;-74
2023/11/24 06:49:23;;;;;;;4.35;0.20;;;5.90;99.90;;;;;;5012807;28;20018;-75
2023/11/24 06:51:50;;;;;;;2.42;0.00;;;5.80;99.90;;;;;;5014754;28;20080;-74
2023/11/24 06:54:15;;;;;;;0.77;0.00;;;5.80;99.90;;;;;;5014954;28;20049;-74
2023/11/24 06:56:41;;;;;;;3.33;0.20;;;5.70;99.90;;;;;;5014245;28;20108;-75
2023/11/24 06:59:07;;;;;;;9.05;1.45;;;5.60;99.90;;;;;;5014455;28;20018;-75
2023/11/24 07:01:34;;;;;;;1.10;0.00;;;5.60;99.90;;;;;;5014356;28;20093;-75
2023/11/24 07:04:01;;;;;;;4.13;0.10;;;5.50;99.90;;;;;;5013671;28;20033;-75
2023/11/24 07:06:27;;;;;;;3.72;0.40;;;5.50;99.90;;;;;;5014227;28;20049;-74
2023/11/24 07:08:53;;;;;;;8.98;0.05;;;5.40;99.90;;;;;;5013617;28;20049;-75
2023/11/24 07:11:20;;;;;;;8.02;0.20;;;5.50;99.90;;;;;;5013586;28;20068;-75
2023/11/24 07:13:45;;;;;;;7.30;0.10;;;5.40;99.90;;;;;;5012565;28;20018;-75
2023/11/24 07:16:11;;;;;;;3.92;0.00;;;5.50;99.90;;;;;;5013086;28;20026;-75
2023/11/24 07:18:36;;;;;;;5.20;0.10;;;5.60;99.90;;;;;;5013523;28;20022;-75
2023/11/24 07:21:02;;;;;;;6.20;0.20;;;5.60;99.90;;;;;;5013851;28;20060;-74
2023/11/24 07:23:28;;;;;;;9.15;0.88;;;5.70;99.90;;;;;;5013724;28;20022;-74
2023/11/24 07:25:53;;;;;;;6.40;0.08;;;5.90;99.90;;;;;;5013383;28;20018;-75
2023/11/24 07:28:19;;;;;;;2.55;0.10;;;6.10;99.90;;;;;;5012452;28;20049;-74
2023/11/24 07:30:46;;;;;;;9.85;0.90;;;;;;;;;;5013959;28;20029;-75
2023/11/24 07:33:12;;;;;;;4.10;0.10;;;6.20;99.90;;;;;;5016064;28;20038;-75
2023/11/24 07:35:38;;;;;;;2.00;0.08;;;6.20;99.90;;;;;;5017239;28;20489;-75
2023/11/24 07:38:04;;;;;;;3.13;0.08;;;6.10;99.90;;;;;;5016021;28;20030;-75
2023/11/24 07:40:30;;;;;;;5.45;0.50;;;5.80;99.90;;;;;;5017326;28;20026;-75
2023/11/24 07:42:56;;;;;;;6.68;0.20;;;5.90;99.90;;;;;;5017240;28;20026;-75
2023/11/24 07:45:22;;;;;;;6.00;0.32;;;5.80;99.90;;;;;;5015706;28;20030;-74
2023/11/24 07:47:48;;;;;;;6.45;0.90;;;7.50;99.90;;;;;;5015577;28;20032;-75
2023/11/24 07:50:13;;;;;;;9.80;0.85;;;5.70;99.90;;;;;;5015722;28;20121;-74
2023/11/24 07:52:39;;;;;;;7.40;0.55;;;5.80;99.90;;;;;;5017054;28;20080;-75
2023/11/24 07:55:05;;;;;;;7.22;0.45;;;5.80;99.90;;;;;;5016852;28;20029;-75
2023/11/24 07:57:32;;;;;;;2.30;0.08;;;6.00;99.90;;;;;;5017327;28;20044;-74
2023/11/24 07:59:58;;;;;;;14.88;0.70;;;5.90;99.90;;;;;;5016774;28;20015;-75
2023/11/24 08:02:25;;;;;;;2.45;0.08;;;6.10;99.90;;;;;;5017493;28;20100;-75
2023/11/24 08:04:50;;;;;;;1.75;0.10;;;6.10;99.90;;;;;;5015684;28;20429;-75
2023/11/24 08:07:18;;;;;;;7.75;0.00;;;6.10;99.90;;;;;;5015840;28;20103;-75
2023/11/24 08:09:44;;;;;;;2.63;0.80;;;6.10;99.90;;;;;;5015465;28;20030;-75
2023/11/24 08:12:10;;;;;;;0.95;0.00;;;6.10;99.90;;;;;;5017113;28;20367;-75
2023/11/24 08:14:37;;;;;;;2.28;0.43;;;;;;;;;;5017103;28;20061;-75
2023/11/24 08:17:03;;;;;;;1.95;0.10;;;6.10;99.90;;;;;;5015480;28;20030;-75
2023/11/24 08:19:28;;;;;;;3.72;0.55;;;6.20;99.90;;;;;;5017409;28;20018;-75
2023/11/24 08:21:54;;;;;;;3.38;0.00;;;6.20;99.90;;;;;;5016334;28;20010;-75
2023/11/24 08:24:19;;;;;;;2.00;0.15;;;6.20;99.90;;;;;;5016247;28;20032;-75
2023/11/24 08:26:45;;;;;;;2.33;0.00;;;6.20;99.90;;;;;;5016483;28;20022;-75
2023/11/24 08:29:12;;;;;;;3.53;0.32;;;6.10;99.90;;;;;;5016497;28;20113;-75
2023/11/24 08:31:37;;;;;;;2.65;0.00;;;6.10;99.90;;;;;;5016602;28;20102;-75
2023/11/24 08:34:08;;;;;;;0.90;0.00;;;6.10;99.90;;;;;;5014860;28;20117;-75
2023/11/24 08:36:34;;;;;;;0.43;0.00;;;6.10;99.90;;;;;;5015337;28;20033;-75
2023/11/24 08:38:59;;;;;;;2.08;0.00;;;6.10;99.90;;;;;;5014678;28;20034;-75
2023/11/24 08:41:25;;;;;;;1.88;0.00;;;6.10;99.90;;;;;;5015735;28;20018;-76
2023/11/24 08:43:50;;;;;;;3.60;0.00;;;6.10;99.90;;;;;;5015762;28;20029;-76
2023/11/24 08:46:16;;;;;;;0.40;0.00;;;6.10;99.90;;;;;;5014634;28;20033;-74
2023/11/24 08:48:41;;;;;;;2.28;0.25;;;6.00;99.90;;;;;;5014758;28;20026;-75
2023/11/24 08:51:07;;;;;;;3.80;0.00;;;5.90;99.90;;;;;;5015980;28;20018;-75
2023/11/24 08:53:34;;;;;;;2.58;0.05;;;5.90;99.90;;;;;;5016012;28;20092;-74
2023/11/24 08:56:05;;;;;;;1.13;0.13;;;5.80;99.90;;;;;;5015342;28;20029;-74
2023/11/24 08:58:32;;;;;;;5.07;0.00;;;5.80;99.90;;;;;;5015573;28;20026;-75
2023/11/24 09:00:58;;;;;;;1.23;0.52;;;5.90;99.90;;;;;;5015636;28;20101;-75
2023/11/24 09:03:24;;;;;;;1.65;0.00;;;5.90;99.90;;;;;;5015800;28;20053;-75
2023/11/24 09:05:56;;;;;;;2.75;0.00;;;6.00;99.90;;;;;;5015464;28;20101;-74
2023/11/24 09:08:22;;;;;;;3.50;0.88;;;6.20;99.90;;;;;;5016049;28;20021;-75
2023/11/24 09:10:48;;;;;;;0.20;0.00;;;6.20;99.90;;;;;;5015678;28;20450;-75
2023/11/24 09:13:14;;;;;;;1.73;0.00;;;6.40;99.90;;;;;;5016093;28;20378;-75
2023/11/24 09:15:43;;;;;;;4.07;0.10;;;6.60;99.90;;;;;;5014087;28;20021;-74
2023/11/24 09:18:10;;;;;;;2.30;0.00;;;7.30;99.90;;;;;;5015886;28;20026;-75
2023/11/24 09:20:36;;;;;;;6.82;0.10;;;6.70;99.90;;;;;;5015087;28;20074;-75
2023/11/24 09:23:02;;;;;;;1.50;0.00;;;6.60;99.90;;;;;;5015290;28;20041;-74
2023/11/24 09:25:28;;;;;;;3.92;0.00;;;6.60;99.90;;;;;;5015440;28;20072;-75
2023/11/24 09:27:54;;;;;;;5.47;0.05;;;6.70;99.90;;;;;;5014961;28;20025;-75
2023/11/24 09:30:19;;;;;;;3.22;0.00;;;6.70;99.90;;;;;;5014209;28;20108;-75
2023/11/24 09:32:45;;;;;;;6.55;0.08;;;6.80;99.90;;;;;;5014952;28;20037;-75
2023/11/24 09:35:14;;;;;;;10.02;0.05;;;6.80;99.90;;;;;;5014990;28;20030;-74
2023/11/24 09:37:40;;;;;;;6.18;0.40;;;6.60;99.90;;;;;;5015600;28;20026;-74
2023/11/24 09:40:12;;;;;;;8.27;1.02;;;6.60;99.90;;;;;;5014839;28;20032;-74
2023/11/24 09:42:44;;;;;;;2.75;0.57;;;6.40;99.90;;;;;;5015146;28;20029;-74
2023/11/24 09:45:15;;;;;;;8.35;0.47;;;6.10;99.90;;;;;;5014641;28;20105;-74
2023/11/24 09:47:48;;;;;;;0.68;0.17;;;6.00;99.90;;;;;;5013716;28;20026;-74
2023/11/24 09:50:18;;;;;;;10.27;0.40;;;5.90;99.90;;;;;;5014787;28;20030;-75
2023/11/24 09:52:48;;;;;;;2.10;0.00;;;5.90;99.90;;;;;;5014944;28;20032;-74
2023/11/24 09:55:13;;;;;;;8.93;0.65;;;5.90;99.90;;;;;;5015223;28;20048;-74
2023/11/24 09:57:43;;;;;;;5.32;0.00;;;5.80;99.90;;;;;;5014534;28;20018;-74
2023/11/24 10:00:11;;;;;;;1.02;0.10;;;5.90;99.90;;;;;;5013449;28;20366;-75
2023/11/24 10:02:39;;;;;;;6.45;0.00;;;6.00;99.90;;;;;;5013623;28;20022;-75
2023/11/24 10:05:06;;;;;;;2.47;0.00;;;6.10;99.90;;;;;;5014601;28;20025;-74
2023/11/24 10:07:34;;;;;;;11.13;0.52;;;6.20;99.90;;;;;;5014745;28;20393;-74
2023/11/24 10:09:59;;;;;;;2.47;0.00;;;6.30;99.90;;;;;;5014624;28;20050;-74
2023/11/24 10:12:25;;;;;;;3.97;0.05;;;6.50;99.90;;;;;;5014533;28;20397;-74
2023/11/24 10:14:54;;;;;;;4.40;0.40;;;6.80;99.90;;;;;;5013465;28;20037;-75
2023/11/24 10:17:22;;;;;;;1.45;0.10;;;8.30;99.90;;;;;;5013277;28;20394;-75
2023/11/24 10:19:49;;;;;;;7.68;0.20;;;6.90;99.90;;;;;;5013303;28;20045;-74
2023/11/24 10:22:14;;;;;;;1.67;0.00;;;6.90;99.90;;;;;;5014959;28;20385;-74
2023/11/24 10:24:40;;;;;;;2.58;0.00;;;6.70;99.90;;;;;;5012978;28;20022;-74
2023/11/24 10:27:22;;;;;;;4.47;0.00;;;6.50;99.90;;;;;;5013155;28;20038;-74
2023/11/24 10:29:48;;;;;;;6.80;0.25;;;6.40;99.90;;;;;;5012852;28;20018;-74
2023/11/24 10:32:24;;;;;;;3.20;0.43;;;7.00;99.90;;;;;;5014293;28;20030;-74
2023/11/24 10:34:51;;;;;;;6.30;0.10;;;6.20;99.90;;;;;;5014375;28;20022;-74
2023/11/24 10:37:21;;;;;;;2.22;0.00;;;6.10;99.90;;;;;;5014064;28;20111;-74
2023/11/24 10:39:48;;;;;;;3.60;0.10;;;6.10;99.90;;;;;;5014516;28;20030;-74
2023/11/24 10:42:15;;;;;;;5.38;0.00;;;6.20;99.90;;;;;;5012775;28;20024;-74
2023/11/24 10:44:43;;;;;;;4.32;0.10;;;6.30;99.90;;;;;;5014044;28;20164;-74
2023/11/24 10:47:10;;;;;;;3.95;0.17;;;6.50;99.90;;;;;;5014064;28;20030;-74
2023/11/24 10:49:48;;;;;;;4.18;0.00;;;6.60;99.90;;;;;;5013018;28;20509;-74
2023/11/24 10:52:31;;;;;;;9.13;0.45;;;6.60;99.90;;;;;;5014241;28;20054;-74
2023/11/24 10:55:04;;;;;;;11.25;0.52;;;6.50;99.90;;;;;;5013872;28;20478;-74
2023/11/24 10:57:33;;;;;;;8.75;1.05;;;6.40;99.90;;;;;;5012862;28;20045;-74
2023/11/24 10:59:59;;;;;;;7.72;0.45;;;6.40;99.90;;;;;;5014080;28;20026;-74
2023/11/24 11:02:26;;;;;;;10.05;0.10;;;6.60;99.90;;;;;;5013945;28;20018;-74
2023/11/24 11:05:19;;;;;;;7.32;0.20;;;6.80;99.90;;;;;;5012936;28;20126;-74
2023/11/24 11:08:03;;;;;;;6.78;0.45;;;7.00;99.90;;;;;;5015939;28;20062;-74
2023/11/24 11:10:36;;;;;;;4.35;0.03;;;7.10;99.90;;;;;;5017735;28;20092;-74
2023/11/24 11:13:03;;;;;;;2.85;0.10;;;7.20;99.90;;;;;;5018269;28;20060;-74
2023/11/24 11:15:31;;;;;;;3.70;0.17;;;7.20;99.90;;;;;;5017318;28;20030;-74
2023/11/24 11:18:09;;;;;;;9.98;1.15;;;7.30;99.90;;;;;;5017704;28;20018;-74
2023/11/24 11:20:40;;;;;;;7.10;0.25;;;7.40;99.90;;;;;;5016395;28;20029;-74
2023/11/24 11:23:05;;;;;;;9.23;0.30;;;7.50;99.90;;;;;;5016452;28;20018;-74
2023/11/24 11:25:32;;;;;;;10.70;0.32;;;7.50;99.90;;;;;;5017220;28;20030;-74
2023/11/24 11:28:17;;;;;;;7.88;0.43;;;7.40;99.90;;;;;;5017287;28;20053;-74
2023/11/24 11:30:44;;;;;;;16.75;1.23;;;7.30;99.90;;;;;;5017143;28;20022;-74
2023/11/24 11:33:13;;;;;;;8.57;0.38;;;7.50;99.90;;;;;;5018014;28;20054;-74
2023/11/24 11:35:43;;;;;;;9.38;0.68;;;7.90;99.90;;;;;;5017060;28;20022;-74
2023/11/24 11:38:11;;;;;;;14.70;1.30;;;8.00;99.90;;;;;;5016940;28;20448;-74
2023/11/24 11:40:37;;;;;;;10.88;1.00;;;7.90;99.90;;;;;;5015938;28;20473;-74
2023/11/24 11:43:13;;;;;;;6.43;0.43;;;7.70;99.90;;;;;;5015710;28;20076;-74
2023/11/24 11:45:48;;;;;;;9.85;0.13;;;7.70;99.90;;;;;;5016202;28;20405;-74
2023/11/24 11:48:14;;;;;;;12.02;0.85;;;7.80;99.90;;;;;;5016875;28;20022;-74
2023/11/24 11:50:58;;;;;;;6.47;0.82;;;7.80;99.90;;;;;;5017058;28;20022;-74
2023/11/24 11:53:33;;;;;;;12.85;0.55;;;7.80;99.90;;;;;;5018028;28;20029;-74
2023/11/24 11:56:00;;;;;;;8.00;0.98;;;7.70;99.90;;;;;;5015641;28;20117;-74
2023/11/24 11:58:27;;;;;;;13.30;0.40;;;7.50;99.90;;;;;;5016819;28;20026;-74
2023/11/24 12:00:53;;;;;;;13.48;1.02;;;7.50;99.90;;;;;;5016908;28;20014;-74
2023/11/24 12:03:20;;;;;;;9.38;0.63;;;7.80;99.90;;;;;;5015449;28;20072;-74
2023/11/24 12:05:51;;;;;;;4.65;0.28;;;7.90;99.90;;;;;;5015834;28;20553;-74
2023/11/24 12:08:23;;;;;;;11.85;0.75;;;8.40;99.90;;;;;;5017423;28;20022;-74
2023/11/24 12:10:49;;;;;;;12.38;0.50;;;8.40;99.90;;;;;;5015733;28;20030;-74
2023/11/24 12:13:15;;;;;;;7.57;0.47;;;8.60;99.90;;;;;;5016635;28;20028;-74
2023/11/24 12:15:43;;;;;;;15.90;0.43;;;8.50;99.90;;;;;;5016660;28;20038;-74
2023/11/24 12:18:15;;;;;;;12.60;0.40;;;8.40;99.90;;;;;;5015451;28;20032;-74
2023/11/24 12:20:41;;;;;;;14.88;1.13;;;8.20;99.90;;;;;;5015401;28;20413;-74
2023/11/24 12:23:10;;;;;;;9.23;0.45;;;7.90;99.90;;;;;;5015409;28;20014;-74
2023/11/24 12:25:37;;;;;;;;;;;7.90;99.90;;;;;;5015815;28;20026;-74
2023/11/24 12:28:09;;;;;;;10.38;0.10;;;7.90;99.90;;;;;;5015990;28;20328;-74
2023/11/24 12:30:42;;;;;;;11.93;0.30;;;8.00;99.90;;;;;;5016095;28;20048;-74
2023/11/24 12:33:24;;;;;;;12.20;1.58;;;8.00;99.90;;;;;;5014665;28;20489;-74
2023/11/24 12:35:55;;;;;;;8.60;0.43;;;7.80;99.90;;;;;;5014750;28;20481;-74
2023/11/24 12:38:21;;;;;;;4.47;0.03;;;7.00;99.90;;;;;;5015851;28;20029;-74
2023/11/24 12:40:49;;;;;;;12.77;0.75;;;6.90;99.90;;;;;;5016110;28;20060;-74
2023/11/24 12:43:21;;;;;;;9.52;0.10;;;6.60;99.90;;;;;;5016454;28;20072;-74
2023/11/24 12:45:48;;;;;;;3.95;0.10;;;6.40;99.90;;;;;;5016104;28;20084;-74
2023/11/24 12:48:24;;;;;;;8.50;0.10;;;6.30;99.90;;;;;;5016017;28;20567;-74
2023/11/24 12:50:56;;;;;;;6.10;0.30;;;6.30;99.90;;;;;;5015949;28;20033;-74
2023/11/24 12:53:23;;;;;;;6.63;0.38;;;6.50;99.90;;;;;;5015827;28;20084;-74
2023/11/24 12:55:49;;;;;;;6.00;0.38;;;6.70;99.90;;;;;;5015801;28;20037;-73
2023/11/24 12:58:14;;;;;;;12.82;0.40;;;6.40;99.90;;;;;;5014823;28;20018;-74